createdAt,value
2022-09-15T00:01:17.227Z,5.05
2022-09-15T00:03:44.917Z,5.00
2022-09-15T00:06:12.603Z,4.50
2022-09-15T00:08:40.811Z,5.00
2022-09-15T00:11:19.234Z,4.00
2022-09-15T00:13:47.386Z,4.53
2022-09-15T00:16:16.506Z,4.90
2022-09-15T00:18:46.214Z,4.33
2022-09-15T00:21:20.005Z,4.18
2022-09-15T00:23:48.661Z,4.37
2022-09-15T00:26:19.634Z,4.53
2022-09-15T00:28:47.930Z,5.03
2022-09-15T00:31:18.779Z,4.95
2022-09-15T00:33:51.122Z,4.35
2022-09-15T00:36:20.114Z,4.30
2022-09-15T00:38:48.105Z,4.88
2022-09-15T00:41:18.165Z,5.10
2022-09-15T00:43:48.469Z,4.35
2022-09-15T00:46:18.816Z,5.45
2022-09-15T00:48:57.914Z,5.00
2022-09-15T00:51:36.506Z,5.45
2022-09-15T00:54:10.363Z,5.00
2022-09-15T00:56:40.242Z,4.60
2022-09-15T00:59:12.713Z,4.50
2022-09-15T01:01:42.518Z,5.32
2022-09-15T01:04:10.336Z,4.70
2022-09-15T01:06:48.284Z,4.82
2022-09-15T01:09:23.706Z,3.80
2022-09-15T01:11:51.469Z,4.88
2022-09-15T01:14:18.982Z,4.05
2022-09-15T01:17:12.432Z,4.05
2022-09-15T01:20:12.271Z,4.82
2022-09-15T01:23:03.301Z,3.90
2022-09-15T01:25:51.325Z,3.67
2022-09-15T01:29:04.835Z,3.50
2022-09-15T01:32:06.946Z,3.78
2022-09-15T01:34:42.155Z,4.78
2022-09-15T01:37:18.314Z,3.40
2022-09-15T01:39:48.755Z,3.83
2022-09-15T01:42:17.485Z,4.28
2022-09-15T01:44:59.217Z,3.50
2022-09-15T01:47:29.828Z,3.75
2022-09-15T01:50:07.198Z,3.47
2022-09-15T01:52:34.984Z,3.50
2022-09-15T01:55:08.044Z,3.63
2022-09-15T01:57:35.582Z,3.25
2022-09-15T02:00:03.493Z,3.70
2022-09-15T02:02:44.740Z,3.38
2022-09-15T02:05:31.001Z,3.47
2022-09-15T02:08:16.322Z,3.70
2022-09-15T02:10:50.123Z,3.35
2022-09-15T02:13:21.664Z,3.60
2022-09-15T02:15:54.335Z,3.67
2022-09-15T02:18:45.450Z,3.65
2022-09-15T02:21:21.969Z,3.72
2022-09-15T02:23:55.168Z,4.00
2022-09-15T02:26:28.006Z,3.80
2022-09-15T02:28:56.583Z,3.92
2022-09-15T02:31:25.921Z,4.15
2022-09-15T02:34:03.970Z,3.90
2022-09-15T02:36:32.041Z,3.40
2022-09-15T02:39:09.521Z,3.40
2022-09-15T02:41:37.584Z,3.17
2022-09-15T02:44:05.202Z,3.67
2022-09-15T02:46:34.163Z,3.42
2022-09-15T02:49:01.737Z,3.60
2022-09-15T02:51:29.722Z,3.60
2022-09-15T02:53:57.608Z,4.03
2022-09-15T02:56:25.502Z,3.60
2022-09-15T02:58:52.997Z,3.53
2022-09-15T03:01:20.813Z,4.38
2022-09-15T03:03:48.352Z,3.85
2022-09-15T03:06:18.572Z,4.03
2022-09-15T03:08:51.103Z,3.72
2022-09-15T03:11:21.184Z,3.83
2022-09-15T03:13:49.641Z,3.67
2022-09-15T03:16:17.393Z,3.80
2022-09-15T03:18:44.865Z,3.92
2022-09-15T03:21:14.175Z,3.83
2022-09-15T03:23:42.581Z,4.47
2022-09-15T03:26:11.257Z,4.28
2022-09-15T03:28:40.188Z,4.18
2022-09-15T03:31:09.079Z,4.37
2022-09-15T03:33:37.716Z,4.32
2022-09-15T03:36:07.185Z,4.88
2022-09-15T03:38:34.673Z,4.20
2022-09-15T03:41:03.699Z,4.13
2022-09-15T03:43:32.295Z,4.18
2022-09-15T03:46:00.247Z,5.25
2022-09-15T03:48:28.793Z,4.60
2022-09-15T03:50:56.498Z,4.40
2022-09-15T03:53:24.089Z,4.50
2022-09-15T03:55:51.962Z,3.95
2022-09-15T03:58:19.841Z,4.80
2022-09-15T04:00:47.804Z,3.73
2022-09-15T04:03:15.307Z,4.18
2022-09-15T04:05:42.857Z,3.60
2022-09-15T04:08:12.995Z,4.15
2022-09-15T04:10:41.510Z,4.85
2022-09-15T04:13:09.469Z,4.65
2022-09-15T04:15:37.021Z,3.88
2022-09-15T04:18:05.187Z,3.97
2022-09-15T04:20:32.831Z,4.65
2022-09-15T04:23:00.362Z,4.50
2022-09-15T04:25:28.133Z,5.20
2022-09-15T04:27:57.185Z,4.45
2022-09-15T04:30:24.739Z,5.40
2022-09-15T04:32:52.701Z,4.32
2022-09-15T04:35:22.227Z,4.30
2022-09-15T04:37:49.827Z,4.72
2022-09-15T04:40:17.785Z,5.18
2022-09-15T04:42:47.079Z,4.77
2022-09-15T04:45:14.713Z,5.13
2022-09-15T04:47:42.210Z,4.88
2022-09-15T04:50:10.174Z,4.88
2022-09-15T04:52:37.953Z,5.03
2022-09-15T04:55:05.734Z,4.28
2022-09-15T04:57:33.838Z,5.25
2022-09-15T05:00:04.164Z,4.80
2022-09-15T05:02:31.889Z,4.10
2022-09-15T05:04:59.717Z,4.27
2022-09-15T05:07:27.248Z,4.13
2022-09-15T05:09:54.876Z,4.20
2022-09-15T05:12:22.781Z,4.65
2022-09-15T05:14:50.119Z,3.90
2022-09-15T05:17:17.687Z,4.18
2022-09-15T05:19:45.099Z,4.97
2022-09-15T05:22:12.621Z,3.78
2022-09-15T05:24:40.165Z,5.00
2022-09-15T05:27:07.700Z,5.22
2022-09-15T05:29:35.531Z,3.83
2022-09-15T05:32:03.248Z,4.55
2022-09-15T05:34:30.719Z,3.63
2022-09-15T05:36:58.277Z,3.92
2022-09-15T05:39:25.660Z,4.40
2022-09-15T05:41:53.307Z,3.65
2022-09-15T05:44:21.663Z,3.80
2022-09-15T05:46:49.846Z,3.55
2022-09-15T05:49:17.341Z,3.42
2022-09-15T05:51:44.894Z,3.92
2022-09-15T05:54:12.254Z,4.30
2022-09-15T05:56:40.037Z,4.57
2022-09-15T05:59:07.798Z,4.72
2022-09-15T06:01:35.846Z,4.45
2022-09-15T06:04:03.775Z,4.40
2022-09-15T06:06:32.737Z,3.80
2022-09-15T06:09:00.866Z,4.10
2022-09-15T06:11:31.006Z,4.00
2022-09-15T06:14:03.514Z,3.83
2022-09-15T06:16:35.777Z,4.03
2022-09-15T06:19:04.127Z,3.65
2022-09-15T06:21:33.014Z,3.40
2022-09-15T06:24:03.621Z,3.53
2022-09-15T06:26:31.387Z,3.80
2022-09-15T06:29:01.472Z,3.67
2022-09-15T06:31:34.174Z,3.30
2022-09-15T06:34:04.285Z,3.67
2022-09-15T06:36:32.390Z,3.30
2022-09-15T06:39:00.711Z,4.43
2022-09-15T06:41:47.430Z,4.30
2022-09-15T06:44:19.817Z,4.10
2022-09-15T06:46:47.751Z,3.70
2022-09-15T06:49:15.354Z,3.92
2022-09-15T06:51:42.784Z,3.75
2022-09-15T06:54:10.356Z,3.95
2022-09-15T06:56:38.485Z,4.57
2022-09-15T06:59:06.431Z,4.03
2022-09-15T07:01:34.328Z,4.00
2022-09-15T07:04:05.034Z,4.07
2022-09-15T07:06:34.155Z,3.95
2022-09-15T07:09:02.807Z,4.07
2022-09-15T07:11:31.304Z,3.90
2022-09-15T07:13:59.045Z,3.33
2022-09-15T07:16:27.006Z,3.17
2022-09-15T07:19:00.648Z,3.58
2022-09-15T07:21:28.634Z,3.42
2022-09-15T07:23:58.135Z,3.47
2022-09-15T07:26:27.960Z,3.90
2022-09-15T07:28:58.069Z,3.53
2022-09-15T07:31:28.336Z,3.67
2022-09-15T07:33:56.066Z,3.60
2022-09-15T07:36:23.843Z,4.20
2022-09-15T07:38:51.474Z,3.55
2022-09-15T07:41:25.085Z,3.50
2022-09-15T07:43:55.015Z,3.70
2022-09-15T07:46:24.460Z,4.55
2022-09-15T07:48:56.676Z,3.85
2022-09-15T07:51:25.260Z,4.05
2022-09-15T07:53:54.022Z,4.30
2022-09-15T07:56:24.134Z,3.90
2022-09-15T07:58:52.103Z,4.70
2022-09-15T08:01:20.766Z,4.03
2022-09-15T08:03:50.455Z,3.70
2022-09-15T08:06:23.520Z,3.80
2022-09-15T08:08:57.700Z,4.40
2022-09-15T08:11:26.865Z,4.07
2022-09-15T08:13:54.419Z,4.22
2022-09-15T08:16:24.394Z,4.22
2022-09-15T08:18:55.654Z,4.05
2022-09-15T08:21:23.189Z,4.20
2022-09-15T08:23:52.882Z,3.97
2022-09-15T08:26:20.544Z,3.80
2022-09-15T08:28:48.745Z,4.15
2022-09-15T08:31:17.428Z,4.90
2022-09-15T08:33:49.997Z,3.72
2022-09-15T08:36:18.328Z,4.22
2022-09-15T08:38:46.322Z,3.55
2022-09-15T08:41:36.636Z,3.42
2022-09-15T08:44:22.627Z,3.40
2022-09-15T08:47:03.307Z,3.58
2022-09-15T08:49:51.493Z,3.13
2022-09-15T08:52:34.922Z,3.13
2022-09-15T08:55:10.097Z,3.50
2022-09-15T08:57:37.846Z,4.32
2022-09-15T09:00:07.179Z,4.25
2022-09-15T09:03:13.880Z,4.60
2022-09-15T09:05:46.082Z,4.05
2022-09-15T09:08:31.586Z,4.30
2022-09-15T09:11:43.728Z,5.37
2022-09-15T09:14:35.659Z,3.85
2022-09-15T09:17:31.286Z,4.05
2022-09-15T09:20:26.422Z,3.08
2022-09-15T09:22:55.029Z,3.08
2022-09-15T09:25:27.940Z,2.90
2022-09-15T09:27:58.690Z,2.73
2022-09-15T09:30:29.843Z,2.45
2022-09-15T09:33:25.856Z,2.50
2022-09-15T09:35:53.531Z,2.60
2022-09-15T09:38:31.852Z,2.83
2022-09-15T09:41:02.271Z,3.00
2022-09-15T09:43:31.258Z,2.60
2022-09-15T09:45:59.545Z,2.30
2022-09-15T09:48:29.030Z,2.42
2022-09-15T09:50:56.916Z,2.53
2022-09-15T09:53:31.951Z,2.30
2022-09-15T09:56:18.452Z,2.70
2022-09-15T09:58:46.358Z,2.45
2022-09-15T10:01:18.146Z,2.33
2022-09-15T10:03:47.718Z,2.25
2022-09-15T10:06:23.024Z,2.10
2022-09-15T10:08:58.354Z,2.43
2022-09-15T10:12:01.986Z,1.92
2022-09-15T10:14:42.150Z,2.15
2022-09-15T10:17:22.367Z,2.58
2022-09-15T10:19:52.914Z,2.00
2022-09-15T10:22:46.909Z,2.30
2022-09-15T10:25:20.483Z,2.00
2022-09-15T10:28:12.825Z,2.00
2022-09-15T10:31:01.516Z,1.92
2022-09-15T10:33:42.035Z,2.10
2022-09-15T10:36:20.338Z,2.05
2022-09-15T10:39:03.611Z,1.85
2022-09-15T10:41:33.078Z,1.77
2022-09-15T10:44:26.854Z,1.83
2022-09-15T10:47:12.785Z,1.83
2022-09-15T10:50:03.925Z,1.95
2022-09-15T10:52:57.933Z,1.80
2022-09-15T10:55:53.628Z,1.95
2022-09-15T10:58:57.073Z,2.00
2022-09-15T11:01:30.665Z,1.83
2022-09-15T11:04:20.536Z,1.92
2022-09-15T11:07:10.492Z,2.20
2022-09-15T11:10:01.631Z,1.80
2022-09-15T11:13:00.827Z,2.03
2022-09-15T11:15:53.375Z,1.90
2022-09-15T11:18:59.112Z,1.90
2022-09-15T11:21:33.345Z,1.80
2022-09-15T11:24:17.073Z,1.92
2022-09-15T11:27:13.274Z,1.75
2022-09-15T11:30:01.389Z,1.70
2022-09-15T11:32:54.261Z,1.70
2022-09-15T11:35:37.073Z,1.55
2022-09-15T11:38:34.650Z,1.90
2022-09-15T11:41:25.201Z,1.60
2022-09-15T11:44:16.754Z,1.95
2022-09-15T11:47:05.824Z,1.73
2022-09-15T11:50:11.797Z,1.90
2022-09-15T11:53:01.197Z,1.50
2022-09-15T11:55:38.269Z,1.48
2022-09-15T11:58:22.227Z,1.80
2022-09-15T12:01:19.318Z,1.30
2022-09-15T12:04:08.759Z,1.60
2022-09-15T12:06:45.558Z,1.55
2022-09-15T12:09:20.624Z,1.50
2022-09-15T12:11:58.695Z,1.60
2022-09-15T12:14:35.598Z,1.50
2022-09-15T12:17:05.933Z,1.50
2022-09-15T12:19:35.971Z,1.40
2022-09-15T12:22:28.752Z,1.58
2022-09-15T12:25:11.551Z,1.60
2022-09-15T12:27:39.211Z,1.80
2022-09-15T12:30:27.020Z,1.60
2022-09-15T12:32:56.991Z,2.00
2022-09-15T12:35:24.393Z,1.50
2022-09-15T12:37:59.418Z,1.40
2022-09-15T12:40:38.166Z,1.55
2022-09-15T12:43:11.911Z,1.40
2022-09-15T12:45:41.674Z,1.60
2022-09-15T12:48:17.391Z,1.50
2022-09-15T12:50:57.632Z,1.90
2022-09-15T12:53:27.538Z,1.67
2022-09-15T12:55:57.613Z,1.85
2022-09-15T12:58:46.762Z,1.50
2022-09-15T13:01:23.309Z,1.77
2022-09-15T13:03:51.155Z,1.60
2022-09-15T13:06:29.212Z,1.67
2022-09-15T13:09:06.040Z,1.70
2022-09-15T13:11:50.446Z,1.70
2022-09-15T13:14:37.347Z,1.50
2022-09-15T13:17:14.422Z,1.65
2022-09-15T13:19:46.941Z,1.75
2022-09-15T13:22:30.317Z,1.75
2022-09-15T13:25:11.484Z,1.73
2022-09-15T13:27:54.108Z,1.67
2022-09-15T13:30:59.132Z,1.50
2022-09-15T13:40:28.142Z,1.60
2022-09-15T13:43:26.690Z,1.67
2022-09-15T13:46:13.273Z,1.70
2022-09-15T13:48:52.993Z,1.80
2022-09-15T13:51:31.749Z,1.67
2022-09-15T13:54:03.729Z,1.77
2022-09-15T13:56:41.497Z,1.90
2022-09-15T13:59:27.447Z,1.60
2022-09-15T14:01:55.942Z,1.70
2022-09-15T14:04:32.149Z,1.70
2022-09-15T14:07:02.009Z,1.70
2022-09-15T14:09:44.869Z,1.67
2022-09-15T14:12:15.269Z,2.42
2022-09-15T14:14:44.928Z,2.45
2022-09-15T14:17:22.893Z,2.50
2022-09-15T14:19:53.251Z,1.90
2022-09-15T14:22:28.930Z,1.53
2022-09-15T14:24:57.858Z,1.40
2022-09-15T14:27:32.393Z,1.20
2022-09-15T14:30:05.282Z,1.48
2022-09-15T14:32:38.981Z,1.93
2022-09-15T14:35:09.637Z,3.30
2022-09-15T14:37:37.438Z,2.30
2022-09-15T14:40:20.245Z,1.70
2022-09-15T14:42:49.942Z,1.90
2022-09-15T14:48:17.368Z,4.07
2022-09-15T14:50:46.842Z,3.35
2022-09-15T14:53:20.057Z,2.90
2022-09-15T14:56:07.709Z,2.95
2022-09-15T14:58:43.792Z,3.20
2022-09-15T15:01:23.749Z,2.85
2022-09-15T15:04:15.198Z,2.70
2022-09-15T15:07:05.760Z,2.08
2022-09-15T15:09:48.228Z,2.35
2022-09-15T15:12:33.602Z,2.33
2022-09-15T15:15:04.080Z,2.00
2022-09-15T15:17:41.009Z,2.47
2022-09-15T15:20:11.381Z,3.60
2022-09-15T15:22:43.174Z,2.50
2022-09-15T15:25:38.775Z,1.90
2022-09-15T15:28:36.273Z,2.38
2022-09-15T15:31:17.235Z,2.35
2022-09-15T15:33:56.514Z,1.40
2022-09-15T15:36:32.437Z,1.38
2022-09-15T15:39:05.866Z,1.00
2022-09-15T15:41:43.358Z,1.10
2022-09-15T15:44:16.904Z,0.60
2022-09-15T15:47:04.774Z,0.80
2022-09-15T15:49:36.793Z,0.60
2022-09-15T15:52:07.953Z,0.70
2022-09-15T15:54:35.568Z,1.05
2022-09-15T15:57:24.722Z,0.55
2022-09-15T15:59:56.484Z,0.60
2022-09-15T16:02:25.562Z,0.73
2022-09-15T16:04:53.114Z,0.88
2022-09-15T16:07:23.670Z,1.40
2022-09-15T16:09:51.691Z,0.50
2022-09-15T16:12:21.744Z,0.70
2022-09-15T16:14:49.409Z,0.57
2022-09-15T16:17:16.816Z,0.90
2022-09-15T16:19:46.523Z,0.70
2022-09-15T16:22:22.058Z,0.65
2022-09-15T16:24:51.684Z,0.70
2022-09-15T16:27:19.459Z,0.90
2022-09-15T16:29:49.251Z,0.80
2022-09-15T16:32:24.998Z,0.80
2022-09-15T16:34:57.206Z,0.80
2022-09-15T16:37:27.186Z,0.70
2022-09-15T16:39:55.442Z,0.80
2022-09-15T16:42:23.274Z,0.77
2022-09-15T16:44:51.488Z,0.70
2022-09-15T16:47:20.810Z,0.70
2022-09-15T16:49:51.975Z,1.00
2022-09-15T16:52:20.298Z,1.50
2022-09-15T16:54:47.768Z,1.47
2022-09-15T16:57:20.234Z,1.20
2022-09-15T16:59:51.474Z,1.10
2022-09-15T17:02:23.221Z,1.13
2022-09-15T17:04:51.727Z,1.00
2022-09-15T17:07:20.387Z,1.00
2022-09-15T17:09:53.533Z,0.90
2022-09-15T17:12:22.614Z,1.00
2022-09-15T17:14:50.084Z,1.00
2022-09-15T17:17:25.299Z,0.90
2022-09-15T17:19:52.785Z,0.90
2022-09-15T17:22:20.277Z,1.10
2022-09-15T17:24:47.855Z,1.25
2022-09-15T17:27:15.344Z,1.60
2022-09-15T17:29:42.903Z,1.80
2022-09-15T17:32:10.334Z,1.95
2022-09-15T17:34:37.970Z,2.03
2022-09-15T17:37:05.675Z,2.03
2022-09-15T17:39:34.335Z,1.27
2022-09-15T17:44:37.080Z,1.10
2022-09-15T17:47:05.523Z,1.00
2022-09-15T17:49:33.140Z,0.90
2022-09-15T17:52:00.775Z,2.20
2022-09-15T17:54:29.093Z,1.43
2022-09-15T17:56:58.128Z,1.70
2022-09-15T17:59:25.716Z,1.75
2022-09-15T18:01:53.351Z,1.90
2022-09-15T18:04:20.898Z,1.70
2022-09-15T18:06:48.398Z,2.50
2022-09-15T18:09:16.119Z,1.63
2022-09-15T18:11:43.721Z,2.08
2022-09-15T18:14:11.460Z,1.70
2022-09-15T18:16:39.021Z,1.92
2022-09-15T18:19:06.454Z,2.10
2022-09-15T18:21:34.024Z,2.13
2022-09-15T18:24:01.587Z,2.17
2022-09-15T18:26:30.014Z,2.40
2022-09-15T18:28:57.514Z,2.10
2022-09-15T18:31:25.115Z,2.30
2022-09-15T18:33:52.657Z,2.10
2022-09-15T18:36:20.860Z,1.60
2022-09-15T18:38:48.433Z,1.40
2022-09-15T18:41:16.115Z,1.35
2022-09-15T18:43:43.998Z,2.22
2022-09-15T18:46:11.595Z,8.55
2022-09-15T18:48:39.093Z,3.10
2022-09-15T18:51:13.840Z,4.00
2022-09-15T18:53:49.746Z,1.67
2022-09-15T18:56:19.568Z,2.20
2022-09-15T18:58:47.081Z,1.50
2022-09-15T19:01:16.392Z,1.70
2022-09-15T19:03:44.278Z,1.48
2022-09-15T19:06:12.292Z,1.37
2022-09-15T19:08:40.568Z,1.73
2022-09-15T19:11:08.120Z,1.88
2022-09-15T19:13:35.945Z,1.37
2022-09-15T19:16:08.873Z,1.30
2022-09-15T19:18:37.145Z,1.30
2022-09-15T19:21:06.554Z,1.10
2022-09-15T19:23:36.158Z,1.50
2022-09-15T19:26:07.066Z,1.50
2022-09-15T19:28:34.693Z,1.50
2022-09-15T19:31:02.225Z,1.58
2022-09-15T19:33:29.939Z,1.95
2022-09-15T19:36:26.857Z,1.70
2022-09-15T19:38:51.566Z,1.70
2022-09-15T19:41:19.257Z,1.70
2022-09-15T19:43:49.120Z,1.38
2022-09-15T19:46:19.674Z,1.30
2022-09-15T19:48:49.381Z,1.35
2022-09-15T19:51:18.825Z,1.45
2022-09-15T19:53:46.744Z,1.35
2022-09-15T19:56:22.058Z,1.60
2022-09-15T19:58:50.224Z,1.70
2022-09-15T20:01:18.383Z,1.20
2022-09-15T20:06:32.750Z,1.80
2022-09-15T20:09:00.680Z,1.42
2022-09-15T20:11:29.855Z,1.55
2022-09-15T20:13:58.028Z,1.40
2022-09-15T20:16:25.819Z,1.48
2022-09-15T20:18:54.513Z,1.60
2022-09-15T20:21:46.263Z,1.87
2022-09-15T20:24:16.373Z,2.00
2022-09-15T20:26:43.811Z,1.90
2022-09-15T20:29:12.026Z,2.00
2022-09-15T20:31:40.184Z,2.20
2022-09-15T20:34:07.857Z,2.10
2022-09-15T20:36:38.633Z,2.10
2022-09-15T20:39:10.710Z,2.08
2022-09-15T20:41:39.502Z,2.00
2022-09-15T20:44:09.611Z,1.80
2022-09-15T20:46:37.450Z,2.03
2022-09-15T20:49:05.113Z,1.80
2022-09-15T20:51:33.927Z,2.15
2022-09-15T20:54:03.932Z,2.30
2022-09-15T20:56:35.295Z,2.40
2022-09-15T20:59:03.914Z,2.40
2022-09-15T21:01:37.529Z,2.50
2022-09-15T21:04:09.231Z,2.75
2022-09-15T21:06:37.521Z,2.42
2022-09-15T21:09:05.970Z,2.90
2022-09-15T21:11:33.686Z,3.10
2022-09-15T21:14:02.135Z,3.13
2022-09-15T21:16:29.961Z,3.33
2022-09-15T21:18:59.192Z,2.75
2022-09-15T21:21:29.976Z,3.30
2022-09-15T21:24:03.781Z,3.28
2022-09-15T21:26:34.213Z,3.13
2022-09-15T21:29:03.236Z,3.13
2022-09-15T21:31:32.942Z,3.10
2022-09-15T21:34:00.673Z,3.00
2022-09-15T21:36:30.392Z,3.00
2022-09-15T21:38:59.399Z,2.65
2022-09-15T21:41:30.170Z,2.10
2022-09-15T21:43:59.327Z,2.20
2022-09-15T21:46:29.680Z,1.93
2022-09-15T21:48:59.064Z,2.40
2022-09-15T21:51:28.708Z,2.60
2022-09-15T21:53:58.109Z,2.30
2022-09-15T21:56:27.623Z,2.20
2022-09-15T21:58:55.262Z,2.13
2022-09-15T22:01:29.359Z,1.85
2022-09-15T22:04:02.221Z,1.80
2022-09-15T22:06:42.659Z,2.10
2022-09-15T22:09:14.374Z,2.15
2022-09-15T22:11:42.376Z,2.00
2022-09-15T22:14:10.640Z,2.00
2022-09-15T22:16:39.879Z,1.88
2022-09-15T22:19:10.076Z,2.03
2022-09-15T22:21:41.930Z,2.35
2022-09-15T22:24:13.099Z,2.10
2022-09-15T22:26:42.342Z,1.88
2022-09-15T22:29:10.107Z,1.65
2022-09-15T22:31:38.527Z,2.00
2022-09-15T22:34:06.092Z,1.80
2022-09-15T22:36:33.831Z,2.22
2022-09-15T22:39:05.480Z,2.10
2022-09-15T22:41:35.815Z,2.10
2022-09-15T22:44:03.917Z,1.90
2022-09-15T22:46:31.870Z,2.28
2022-09-15T22:48:59.367Z,2.03
2022-09-15T22:51:26.950Z,2.38
2022-09-15T22:53:57.516Z,2.20
2022-09-15T22:56:26.605Z,1.90
2022-09-15T22:58:55.584Z,2.60
2022-09-15T23:01:28.440Z,1.92
2022-09-15T23:04:01.866Z,2.50
2022-09-15T23:06:32.739Z,2.25
2022-09-15T23:09:03.511Z,2.40
2022-09-15T23:11:34.547Z,2.25
2022-09-15T23:14:03.010Z,2.88
2022-09-15T23:16:31.045Z,2.88
2022-09-15T23:18:59.517Z,2.20
2022-09-15T23:21:28.580Z,2.00
2022-09-15T23:23:56.391Z,1.92
2022-09-15T23:26:25.240Z,2.40
2022-09-15T23:28:53.790Z,2.08
2022-09-15T23:31:21.995Z,2.00
2022-09-15T23:33:49.601Z,2.80
2022-09-15T23:36:19.830Z,2.03
2022-09-15T23:38:48.351Z,2.30
2022-09-15T23:41:17.234Z,2.20
2022-09-15T23:43:45.466Z,2.30
2022-09-15T23:46:13.049Z,2.05
2022-09-15T23:48:40.862Z,2.57
2022-09-15T23:51:09.089Z,2.30
2022-09-15T23:53:37.357Z,1.98
2022-09-15T23:56:05.424Z,2.38
2022-09-15T23:58:33.223Z,2.50
